createdAt,value
2023-02-11T00:00:56.916Z,94.22
2023-02-11T00:01:56.941Z,93.97
2023-02-11T00:02:56.929Z,93.65
2023-02-11T00:03:56.854Z,94.43
2023-02-11T00:04:56.856Z,94.07
2023-02-11T00:05:56.852Z,93.65
2023-02-11T00:06:56.832Z,93.65
2023-02-11T00:07:56.833Z,94.18
2023-02-11T00:08:56.815Z,93.55
2023-02-11T00:09:56.789Z,93.76
2023-02-11T00:10:56.787Z,93.65
2023-02-11T00:11:56.821Z,93.70
2023-02-11T00:12:56.774Z,93.80
2023-02-11T00:13:56.744Z,94.07
2023-02-11T00:14:56.759Z,94.43
2023-02-11T00:15:56.728Z,93.91
2023-02-11T00:16:56.893Z,93.97
2023-02-11T00:17:56.715Z,94.12
2023-02-11T00:18:56.700Z,94.07
2023-02-11T00:19:56.690Z,93.87
2023-02-11T00:20:56.671Z,93.97
2023-02-11T00:21:56.678Z,93.97
2023-02-11T00:22:56.654Z,94.18
2023-02-11T00:23:56.650Z,94.18
2023-02-11T00:24:56.649Z,94.07
2023-02-11T00:25:56.632Z,94.07
2023-02-11T00:26:56.634Z,94.07
2023-02-11T00:27:56.638Z,94.07
2023-02-11T00:28:56.658Z,94.07
2023-02-11T00:29:56.573Z,93.97
2023-02-11T00:30:56.713Z,94.18
2023-02-11T00:31:56.704Z,94.07
2023-02-11T00:32:56.547Z,94.07
2023-02-11T00:33:56.524Z,94.24
2023-02-11T00:34:56.514Z,94.07
2023-02-11T00:35:56.504Z,94.07
2023-02-11T00:36:56.529Z,94.18
2023-02-11T00:37:56.482Z,93.76
2023-02-11T00:38:56.469Z,93.97
2023-02-11T00:39:56.455Z,94.18
2023-02-11T00:40:56.448Z,93.93
2023-02-11T00:41:56.453Z,93.76
2023-02-11T00:42:56.438Z,93.93
2023-02-11T00:43:56.404Z,93.65
2023-02-11T00:44:56.421Z,93.97
2023-02-11T00:45:56.410Z,94.07
2023-02-11T00:46:56.513Z,94.07
2023-02-11T00:47:56.384Z,94.18
2023-02-11T00:48:56.382Z,94.18
2023-02-11T00:49:56.347Z,94.07
2023-02-11T00:50:56.334Z,93.97
2023-02-11T00:51:56.344Z,93.93
2023-02-11T00:52:56.327Z,93.71
2023-02-11T00:53:56.320Z,93.71
2023-02-11T00:54:56.308Z,94.24
2023-02-11T00:55:56.317Z,94.38
2023-02-11T00:56:56.289Z,94.56
2023-02-11T00:57:56.271Z,94.03
2023-02-11T00:58:56.244Z,94.24
2023-02-11T00:59:56.232Z,94.76
2023-02-11T01:00:56.326Z,94.66
2023-02-11T01:01:56.229Z,94.97
2023-02-11T01:02:56.221Z,94.45
2023-02-11T01:03:56.248Z,94.56
2023-02-11T01:04:56.202Z,94.03
2023-02-11T01:05:56.164Z,93.82
2023-02-11T01:06:56.192Z,94.24
2023-02-11T01:07:56.166Z,93.65
2023-02-11T01:08:56.165Z,93.82
2023-02-11T01:09:56.125Z,94.56
2023-02-11T01:10:56.115Z,94.76
2023-02-11T01:11:56.123Z,94.34
2023-02-11T01:12:56.116Z,94.66
2023-02-11T01:13:56.124Z,94.76
2023-02-11T01:14:56.073Z,94.97
2023-02-11T01:15:56.178Z,94.62
2023-02-11T01:16:56.177Z,94.66
2023-02-11T01:17:56.052Z,94.93
2023-02-11T01:18:56.064Z,94.72
2023-02-11T01:19:56.043Z,94.62
2023-02-11T01:20:56.008Z,95.14
2023-02-11T01:21:55.996Z,95.03
2023-02-11T01:22:56.025Z,94.82
2023-02-11T01:23:55.977Z,94.40
2023-02-11T01:24:55.995Z,95.03
2023-02-11T01:25:55.958Z,94.72
2023-02-11T01:26:55.934Z,94.36
2023-02-11T01:28:04.818Z,94.40
2023-02-11T01:28:55.923Z,94.40
2023-02-11T01:29:55.914Z,94.40
2023-02-11T01:31:04.890Z,94.46
2023-02-11T01:31:55.947Z,94.72
2023-02-11T01:33:04.866Z,94.51
2023-02-11T01:34:03.070Z,94.46
2023-02-11T01:34:55.950Z,94.36
2023-02-11T01:35:55.849Z,94.57
2023-02-11T01:36:55.844Z,94.40
2023-02-11T01:37:55.905Z,94.93
2023-02-11T01:38:55.910Z,94.51
2023-02-11T01:39:55.816Z,94.40
2023-02-11T01:40:55.783Z,94.51
2023-02-11T01:41:55.809Z,94.46
2023-02-11T01:42:55.759Z,94.46
2023-02-11T01:43:55.795Z,94.82
2023-02-11T01:44:55.749Z,94.68
2023-02-11T01:45:55.731Z,94.40
2023-02-11T01:46:55.731Z,94.51
2023-02-11T01:47:55.710Z,94.40
2023-02-11T01:48:55.858Z,94.30
2023-02-11T01:49:55.705Z,94.30
2023-02-11T01:50:55.671Z,94.93
2023-02-11T01:51:55.664Z,94.62
2023-02-11T01:52:56.200Z,94.62
2023-02-11T01:53:55.667Z,94.40
2023-02-11T01:54:55.640Z,94.82
2023-02-11T01:55:55.620Z,94.30
2023-02-11T01:56:55.624Z,93.99
2023-02-11T01:57:55.600Z,94.30
2023-02-11T01:58:55.608Z,94.30
2023-02-11T01:59:55.587Z,93.78
2023-02-11T02:00:55.575Z,94.20
2023-02-11T02:01:55.620Z,93.61
2023-02-11T02:02:55.542Z,94.03
2023-02-11T02:03:55.549Z,94.56
2023-02-11T02:04:55.541Z,94.62
2023-02-11T02:05:55.534Z,94.56
2023-02-11T02:06:55.513Z,94.62
2023-02-11T02:07:55.499Z,94.76
2023-02-11T02:08:55.477Z,94.56
2023-02-11T02:09:55.485Z,94.56
2023-02-11T02:10:55.450Z,94.56
2023-02-11T02:11:55.450Z,94.51
2023-02-11T02:12:55.439Z,94.34
2023-02-11T02:13:55.420Z,94.66
2023-02-11T02:14:55.420Z,94.40
2023-02-11T02:15:55.465Z,94.56
2023-02-11T02:16:55.386Z,94.34
2023-02-11T02:17:55.384Z,94.51
2023-02-11T02:18:55.370Z,94.45
2023-02-11T02:19:55.368Z,94.76
2023-02-11T02:20:55.340Z,94.56
2023-02-11T02:21:55.350Z,94.51
2023-02-11T02:22:55.312Z,94.66
2023-02-11T02:23:55.323Z,94.45
2023-02-11T02:24:55.326Z,94.45
2023-02-11T02:25:55.324Z,94.45
2023-02-11T02:26:55.295Z,94.56
2023-02-11T02:27:55.309Z,94.20
2023-02-11T02:28:55.244Z,94.40
2023-02-11T02:29:55.259Z,94.30
2023-02-11T02:30:55.321Z,94.40
2023-02-11T02:31:55.319Z,94.40
2023-02-11T02:32:55.202Z,94.62
2023-02-11T02:33:55.201Z,94.51
2023-02-11T02:34:55.198Z,94.51
2023-02-11T02:35:55.191Z,94.40
2023-02-11T02:36:55.169Z,94.72
2023-02-11T02:37:55.167Z,94.51
2023-02-11T02:38:55.136Z,94.62
2023-02-11T02:39:55.147Z,94.40
2023-02-11T02:40:55.127Z,94.51
2023-02-11T02:41:55.117Z,94.30
2023-02-11T02:42:55.105Z,94.40
2023-02-11T02:43:55.086Z,94.30
2023-02-11T02:44:55.066Z,94.62
2023-02-11T02:45:55.081Z,94.46
2023-02-11T02:46:55.096Z,94.68
2023-02-11T02:47:55.042Z,94.46
2023-02-11T02:48:55.036Z,94.46
2023-02-11T02:49:55.019Z,94.36
2023-02-11T02:50:55.026Z,94.46
2023-02-11T02:51:54.999Z,94.36
2023-02-11T02:52:55.009Z,94.46
2023-02-11T02:53:55.072Z,94.32
2023-02-11T02:54:54.975Z,94.36
2023-02-11T02:55:54.952Z,94.42
2023-02-11T02:56:54.954Z,94.42
2023-02-11T02:57:54.958Z,94.84
2023-02-11T02:58:54.916Z,94.64
2023-02-11T02:59:54.907Z,94.07
2023-02-11T03:00:55.054Z,94.53
2023-02-11T03:01:54.890Z,93.54
2023-02-11T03:02:54.872Z,93.86
2023-02-11T03:03:54.933Z,93.96
2023-02-11T03:04:54.853Z,93.76
2023-02-11T03:05:54.849Z,93.61
2023-02-11T03:06:54.858Z,93.29
2023-02-11T03:07:54.821Z,93.08
2023-02-11T03:08:54.804Z,92.88
2023-02-11T03:09:54.839Z,92.25
2023-02-11T03:10:54.781Z,92.77
2023-02-11T03:11:54.796Z,92.21
2023-02-11T03:12:54.797Z,92.52
2023-02-11T03:13:54.782Z,92.35
2023-02-11T03:14:54.746Z,92.31
2023-02-11T03:15:55.008Z,91.79
2023-02-11T03:16:54.714Z,91.79
2023-02-11T03:17:54.869Z,91.69
2023-02-11T03:18:54.726Z,91.69
2023-02-11T03:19:54.688Z,91.58
2023-02-11T03:20:54.674Z,91.89
2023-02-11T03:21:54.676Z,91.89
2023-02-11T03:22:54.649Z,91.64
2023-02-11T03:23:54.668Z,91.12
2023-02-11T03:24:54.646Z,91.12
2023-02-11T03:25:54.639Z,91.12
2023-02-11T03:26:54.608Z,90.60
2023-02-11T03:27:54.654Z,90.39
2023-02-11T03:28:54.604Z,90.91
2023-02-11T03:29:54.598Z,90.70
2023-02-11T03:30:54.638Z,90.70
2023-02-11T03:31:54.657Z,90.77
2023-02-11T03:32:54.537Z,90.60
2023-02-11T03:33:54.555Z,90.81
2023-02-11T03:34:54.515Z,90.60
2023-02-11T03:35:54.511Z,90.70
2023-02-11T03:36:54.510Z,90.70
2023-02-11T03:37:54.611Z,90.81
2023-02-11T03:38:54.493Z,91.02
2023-02-11T03:39:54.467Z,90.81
2023-02-11T03:40:54.453Z,91.18
2023-02-11T03:41:54.461Z,91.08
2023-02-11T03:42:54.543Z,91.08
2023-02-11T03:43:54.423Z,91.02
2023-02-11T03:44:54.426Z,91.02
2023-02-11T03:45:54.797Z,90.70
2023-02-11T03:46:54.418Z,90.70
2023-02-11T03:47:54.509Z,91.02
2023-02-11T03:48:54.372Z,90.91
2023-02-11T03:49:54.358Z,90.91
2023-02-11T03:50:54.356Z,90.87
2023-02-11T03:51:54.372Z,91.08
2023-02-11T03:52:54.348Z,90.97
2023-02-11T03:53:54.355Z,90.56
2023-02-11T03:54:54.338Z,90.87
2023-02-11T03:55:54.402Z,90.77
2023-02-11T03:56:54.274Z,90.87
2023-02-11T03:57:54.374Z,90.03
2023-02-11T03:58:54.248Z,90.25
2023-02-11T03:59:54.244Z,90.25
2023-02-11T04:00:54.309Z,89.93
2023-02-11T04:01:54.234Z,90.14
2023-02-11T04:02:54.235Z,89.93
2023-02-11T04:03:54.225Z,89.93
2023-02-11T04:04:54.204Z,90.03
2023-02-11T04:05:54.187Z,89.83
2023-02-11T04:06:54.175Z,90.14
2023-02-11T04:07:54.154Z,89.83
2023-02-11T04:08:54.144Z,90.03
2023-02-11T04:09:54.136Z,90.03
2023-02-11T04:10:54.130Z,89.72
2023-02-11T04:11:54.129Z,90.14
2023-02-11T04:12:54.103Z,90.14
2023-02-11T04:13:54.105Z,90.66
2023-02-11T04:14:54.069Z,90.87
2023-02-11T04:15:54.488Z,90.87
2023-02-11T04:16:54.048Z,90.77
2023-02-11T04:17:54.062Z,89.93
2023-02-11T04:18:54.044Z,90.66
2023-02-11T04:19:54.041Z,91.08
2023-02-11T04:20:54.018Z,90.97
2023-02-11T04:21:54.019Z,90.14
2023-02-11T04:22:54.036Z,90.03
2023-02-11T04:23:53.975Z,90.03
2023-02-11T04:24:53.979Z,89.93
2023-02-11T04:25:53.953Z,89.93
2023-02-11T04:26:53.943Z,90.25
2023-02-11T04:27:53.954Z,89.51
2023-02-11T04:28:53.919Z,90.14
2023-02-11T04:29:53.930Z,90.03
2023-02-11T04:30:54.027Z,89.93
2023-02-11T04:31:53.929Z,90.14
2023-02-11T04:32:54.022Z,89.93
2023-02-11T04:33:53.871Z,89.93
2023-02-11T04:34:53.849Z,89.93
2023-02-11T04:35:53.843Z,89.93
2023-02-11T04:36:53.862Z,89.83
2023-02-11T04:37:53.844Z,89.72
2023-02-11T04:38:53.823Z,89.83
2023-02-11T04:39:53.813Z,89.93
2023-02-11T04:40:53.782Z,89.83
2023-02-11T04:41:53.782Z,90.03
2023-02-11T04:42:53.793Z,90.14
2023-02-11T04:43:53.757Z,89.62
2023-02-11T04:44:53.736Z,89.83
2023-02-11T04:45:54.107Z,89.93
2023-02-11T04:46:53.717Z,89.72
2023-02-11T04:47:53.729Z,90.14
2023-02-11T04:48:53.709Z,89.72
2023-02-11T04:49:53.688Z,89.62
2023-02-11T04:50:53.690Z,89.37
2023-02-11T04:51:53.665Z,88.85
2023-02-11T04:52:53.650Z,88.95
2023-02-11T04:53:53.671Z,89.06
2023-02-11T04:54:53.640Z,88.32
2023-02-11T04:55:53.743Z,88.53
2023-02-11T04:56:53.606Z,87.76
2023-02-11T04:57:53.599Z,87.87
2023-02-11T04:58:53.585Z,87.35
2023-02-11T04:59:53.577Z,87.55
2023-02-11T05:00:53.606Z,87.55
2023-02-11T05:01:53.581Z,87.55
2023-02-11T05:02:53.543Z,87.87
2023-02-11T05:03:53.683Z,88.08
2023-02-11T05:04:53.535Z,88.08
2023-02-11T05:05:53.713Z,87.97
2023-02-11T05:06:53.509Z,87.87
2023-02-11T05:07:53.492Z,87.97
2023-02-11T05:08:53.493Z,87.66
2023-02-11T05:09:53.491Z,88.08
2023-02-11T05:10:53.449Z,87.55
2023-02-11T05:11:53.455Z,87.97
2023-02-11T05:12:55.716Z,87.87
2023-02-11T05:13:53.446Z,87.87
2023-02-11T05:14:53.402Z,87.76
2023-02-11T05:15:53.660Z,87.97
2023-02-11T05:16:53.474Z,87.83
2023-02-11T05:17:53.409Z,88.24
2023-02-11T05:18:53.387Z,87.83
2023-02-11T05:19:53.348Z,87.93
2023-02-11T05:20:53.366Z,87.62
2023-02-11T05:22:02.236Z,87.83
2023-02-11T05:22:54.319Z,87.41
2023-02-11T05:23:53.304Z,87.73
2023-02-11T05:24:53.336Z,87.83
2023-02-11T05:25:53.306Z,87.83
2023-02-11T05:26:53.277Z,87.41
2023-02-11T05:27:53.279Z,87.73
2023-02-11T05:28:53.334Z,87.41
2023-02-11T05:29:53.237Z,86.79
2023-02-11T05:30:53.254Z,87.20
2023-02-11T05:31:53.214Z,87.20
2023-02-11T05:32:53.227Z,87.20
2023-02-11T05:33:53.227Z,87.41
2023-02-11T05:34:53.185Z,86.99
2023-02-11T05:35:53.192Z,86.37
2023-02-11T05:36:53.176Z,86.68
2023-02-11T05:37:53.148Z,87.10
2023-02-11T05:38:53.148Z,87.10
2023-02-11T05:39:53.138Z,87.52
2023-02-11T05:40:53.139Z,87.41
2023-02-11T05:41:53.124Z,87.83
2023-02-11T05:42:53.109Z,88.24
2023-02-11T05:43:53.082Z,88.87
2023-02-11T05:44:53.077Z,88.62
2023-02-11T05:45:53.542Z,88.87
2023-02-11T05:46:53.051Z,89.29
2023-02-11T05:47:53.035Z,89.29
2023-02-11T05:48:53.043Z,89.08
2023-02-11T05:49:53.032Z,89.60
2023-02-11T05:50:53.028Z,89.81
2023-02-11T05:51:52.991Z,89.60
2023-02-11T05:52:52.990Z,89.81
2023-02-11T05:53:52.970Z,90.95
2023-02-11T05:54:52.979Z,90.12
2023-02-11T05:55:53.201Z,90.12
2023-02-11T05:56:52.943Z,90.12
2023-02-11T05:57:52.925Z,89.85
2023-02-11T05:58:52.948Z,89.81
2023-02-11T05:59:52.924Z,90.58
2023-02-11T06:00:52.913Z,90.95
2023-02-11T06:01:52.883Z,90.75
2023-02-11T06:02:52.954Z,89.81
2023-02-11T06:03:52.962Z,89.43
2023-02-11T06:04:52.870Z,89.75
2023-02-11T06:05:53.158Z,89.70
2023-02-11T06:06:52.921Z,89.64
2023-02-11T06:07:52.821Z,90.85
2023-02-11T06:08:52.838Z,90.64
2023-02-11T06:09:52.874Z,90.33
2023-02-11T06:10:52.789Z,91.47
2023-02-11T06:11:52.801Z,91.47
2023-02-11T06:12:52.774Z,91.47
2023-02-11T06:13:52.803Z,91.58
2023-02-11T06:14:52.742Z,91.31
2023-02-11T06:15:53.094Z,91.62
2023-02-11T06:16:52.727Z,92.21
2023-02-11T06:17:52.727Z,92.21
2023-02-11T06:18:52.697Z,92.14
2023-02-11T06:19:52.683Z,92.21
2023-02-11T06:20:52.679Z,92.56
2023-02-11T06:21:52.696Z,92.87
2023-02-11T06:22:52.668Z,92.77
2023-02-11T06:23:52.644Z,93.08
2023-02-11T06:25:01.437Z,93.60
2023-02-11T06:25:53.932Z,93.40
2023-02-11T06:26:52.608Z,93.14
2023-02-11T06:27:52.610Z,93.60
2023-02-11T06:28:52.590Z,93.91
2023-02-11T06:29:52.609Z,94.12
2023-02-11T06:30:52.696Z,94.12
2023-02-11T06:31:52.768Z,94.85
2023-02-11T06:32:52.613Z,95.06
2023-02-11T06:33:52.528Z,95.27
2023-02-11T06:34:52.519Z,95.48
2023-02-11T06:35:52.843Z,95.48
2023-02-11T06:36:52.515Z,96.11
2023-02-11T06:37:52.499Z,96.31
2023-02-11T06:38:52.502Z,96.83
2023-02-11T06:39:52.456Z,97.04
2023-02-11T06:40:52.454Z,97.25
2023-02-11T06:41:52.473Z,96.94
2023-02-11T06:42:52.430Z,97.09
2023-02-11T06:43:52.445Z,97.61
2023-02-11T06:44:52.414Z,97.30
2023-02-11T06:45:52.531Z,97.04
2023-02-11T06:46:52.402Z,97.61
2023-02-11T06:47:52.414Z,97.09
2023-02-11T06:48:52.363Z,97.09
2023-02-11T06:49:52.347Z,96.98
2023-02-11T06:50:52.359Z,97.30
2023-02-11T06:51:52.323Z,96.56
2023-02-11T06:52:52.316Z,96.25
2023-02-11T06:53:52.327Z,96.52
2023-02-11T06:54:52.300Z,96.46
2023-02-11T06:55:52.579Z,96.42
2023-02-11T06:56:53.023Z,96.46
2023-02-11T06:57:52.258Z,96.42
2023-02-11T06:58:52.272Z,97.09
2023-02-11T06:59:52.254Z,96.88
2023-02-11T07:00:52.233Z,97.04
2023-02-11T07:01:52.275Z,96.94
2023-02-11T07:02:52.248Z,97.56
2023-02-11T07:03:52.194Z,97.50
2023-02-11T07:04:52.198Z,97.30
2023-02-11T07:05:52.489Z,97.81
2023-02-11T07:06:52.181Z,98.23
2023-02-11T07:07:52.145Z,98.13
2023-02-11T07:08:52.141Z,97.71
2023-02-11T07:09:52.164Z,98.02
2023-02-11T07:10:52.172Z,98.34
2023-02-11T07:11:52.097Z,98.44
2023-02-11T07:12:52.117Z,98.44
2023-02-11T07:13:52.106Z,98.02
2023-02-11T07:14:52.073Z,98.34
2023-02-11T07:15:52.406Z,99.07
2023-02-11T07:16:52.089Z,99.07
2023-02-11T07:17:52.035Z,98.86
2023-02-11T07:18:52.042Z,98.82
2023-02-11T07:19:52.027Z,98.82
2023-02-11T07:20:52.008Z,98.92
2023-02-11T07:21:52.036Z,98.71
2023-02-11T07:22:51.985Z,98.82
2023-02-11T07:23:51.994Z,99.27
2023-02-11T07:24:51.965Z,99.13
2023-02-11T07:25:52.243Z,98.92
2023-02-11T07:26:51.942Z,98.50
2023-02-11T07:27:51.954Z,98.86
2023-02-11T07:28:51.938Z,98.19
2023-02-11T07:29:51.899Z,98.29
2023-02-11T07:30:51.920Z,98.19
2023-02-11T07:31:51.961Z,98.08
2023-02-11T07:32:51.893Z,97.88
2023-02-11T07:33:51.881Z,97.25
2023-02-11T07:34:51.953Z,97.14
2023-02-11T07:35:52.238Z,97.14
2023-02-11T07:36:51.830Z,96.73
2023-02-11T07:37:51.811Z,96.00
2023-02-11T07:38:51.844Z,95.58
2023-02-11T07:39:51.809Z,96.52
2023-02-11T07:40:51.780Z,95.64
2023-02-11T07:41:51.902Z,95.58
2023-02-11T07:42:51.764Z,95.27
2023-02-11T07:43:51.772Z,95.23
2023-02-11T07:44:51.790Z,95.23
2023-02-11T07:45:51.990Z,95.02
2023-02-11T07:46:51.787Z,94.92
2023-02-11T07:47:51.696Z,93.98
2023-02-11T07:48:51.691Z,94.18
2023-02-11T07:49:53.423Z,94.18
2023-02-11T07:50:51.667Z,94.08
2023-02-11T07:51:51.676Z,94.08
2023-02-11T07:52:51.657Z,93.73
2023-02-11T07:53:51.650Z,93.98
2023-02-11T07:54:51.721Z,94.87
2023-02-11T07:55:52.014Z,94.98
2023-02-11T07:56:51.645Z,95.08
2023-02-11T07:57:51.607Z,94.87
2023-02-11T07:58:51.651Z,95.02
2023-02-11T07:59:51.580Z,95.54
2023-02-11T08:00:51.631Z,95.54
2023-02-11T08:01:51.614Z,95.29
2023-02-11T08:02:51.543Z,95.23
2023-02-11T08:03:51.521Z,95.23
2023-02-11T08:04:51.536Z,95.23
2023-02-11T08:05:51.844Z,95.64
2023-02-11T08:06:51.495Z,95.54
2023-02-11T08:07:51.487Z,95.95
2023-02-11T08:08:51.488Z,95.64
2023-02-11T08:09:51.453Z,95.70
2023-02-11T08:10:51.780Z,95.33
2023-02-11T08:11:51.460Z,95.81
2023-02-11T08:12:51.427Z,96.33
2023-02-11T08:13:51.423Z,95.81
2023-02-11T08:14:51.398Z,95.81
2023-02-11T08:15:51.828Z,96.43
2023-02-11T08:16:51.428Z,96.12
2023-02-11T08:17:51.383Z,96.53
2023-02-11T08:18:51.362Z,96.95
2023-02-11T08:19:51.355Z,96.75
2023-02-11T08:20:51.745Z,97.37
2023-02-11T08:21:51.323Z,97.78
2023-02-11T08:22:51.333Z,97.37
2023-02-11T08:23:51.292Z,97.68
2023-02-11T08:24:52.472Z,98.20
2023-02-11T08:25:51.279Z,97.78
2023-02-11T08:26:51.261Z,97.68
2023-02-11T08:27:51.266Z,97.47
2023-02-11T08:28:51.246Z,97.89
2023-02-11T08:29:51.267Z,98.56
2023-02-11T08:30:51.666Z,98.20
2023-02-11T08:31:51.301Z,98.04
2023-02-11T08:32:51.196Z,98.83
2023-02-11T08:33:51.181Z,98.77
2023-02-11T08:34:51.210Z,99.08
2023-02-11T08:35:51.156Z,99.14
2023-02-11T08:36:51.157Z,99.29
2023-02-11T08:37:51.147Z,99.04
2023-02-11T08:38:51.156Z,98.93
2023-02-11T08:39:51.122Z,99.24
2023-02-11T08:40:51.284Z,99.14
2023-02-11T08:41:51.086Z,99.14
2023-02-11T08:42:51.084Z,99.24
2023-02-11T08:43:51.100Z,99.24
2023-02-11T08:44:51.061Z,99.04
2023-02-11T08:45:51.481Z,98.93
2023-02-11T08:46:51.046Z,99.14
2023-02-11T08:47:51.043Z,98.93
2023-02-11T08:48:51.020Z,99.24
2023-02-11T08:49:51.014Z,98.93
2023-02-11T08:50:51.021Z,99.04
2023-02-11T08:51:50.981Z,99.24
2023-02-11T08:52:50.973Z,99.04
2023-02-11T08:53:50.980Z,99.24
2023-02-11T08:54:50.952Z,98.99
2023-02-11T08:55:51.247Z,99.14
2023-02-11T08:56:50.936Z,99.66
2023-02-11T08:57:50.919Z,99.82
2023-02-11T08:58:50.928Z,99.30
2023-02-11T08:59:50.889Z,99.82
2023-02-11T09:00:51.322Z,99.99
2023-02-11T09:01:51.024Z,99.99
2023-02-11T09:02:50.864Z,99.82
2023-02-11T09:03:50.866Z,99.55
2023-02-11T09:04:50.838Z,99.99
2023-02-11T09:05:50.820Z,99.99
2023-02-11T09:06:50.814Z,99.93
2023-02-11T09:07:50.831Z,99.93
2023-02-11T09:08:50.800Z,99.76
2023-02-11T09:09:50.802Z,99.72
2023-02-11T09:10:51.145Z,99.82
2023-02-11T09:11:50.756Z,99.99
2023-02-11T09:12:50.768Z,99.99
2023-02-11T09:13:53.930Z,99.99
2023-02-11T09:14:50.729Z,99.93
2023-02-11T09:15:50.736Z,99.99
2023-02-11T09:16:50.877Z,99.99
2023-02-11T09:17:50.706Z,99.99
2023-02-11T09:18:50.697Z,99.99
2023-02-11T09:19:50.670Z,99.99
2023-02-11T09:20:51.078Z,99.99
2023-02-11T09:21:50.687Z,99.99
2023-02-11T09:22:50.670Z,99.99
2023-02-11T09:23:50.620Z,99.99
2023-02-11T09:24:50.634Z,99.99
2023-02-11T09:25:50.918Z,99.99
2023-02-11T09:26:50.616Z,99.99
2023-02-11T09:27:50.598Z,99.99
2023-02-11T09:28:50.608Z,99.99
2023-02-11T09:29:50.558Z,99.99
2023-02-11T09:30:51.138Z,99.99
2023-02-11T09:31:50.744Z,99.99
2023-02-11T09:32:50.532Z,99.99
2023-02-11T09:33:50.533Z,99.99
2023-02-11T09:34:50.515Z,99.99
2023-02-11T09:35:50.526Z,99.99
2023-02-11T09:36:50.512Z,99.99
2023-02-11T09:37:50.473Z,99.99
2023-02-11T09:38:50.456Z,99.99
2023-02-11T09:39:50.448Z,99.99
2023-02-11T09:40:50.784Z,99.99
2023-02-11T09:41:50.449Z,99.99
2023-02-11T09:42:50.444Z,99.99
2023-02-11T09:43:50.405Z,99.99
2023-02-11T09:44:50.390Z,99.99
2023-02-11T09:45:50.436Z,99.99
2023-02-11T09:46:50.383Z,99.99
2023-02-11T09:47:50.370Z,99.99
2023-02-11T09:48:50.372Z,99.99
2023-02-11T09:49:50.381Z,99.99
2023-02-11T09:50:50.662Z,99.99
2023-02-11T09:51:50.330Z,99.99
2023-02-11T09:52:50.331Z,99.99
2023-02-11T09:53:50.294Z,99.99
2023-02-11T09:54:50.295Z,99.99
2023-02-11T09:55:50.277Z,99.99
2023-02-11T09:56:50.262Z,99.99
2023-02-11T09:57:50.259Z,99.99
2023-02-11T09:58:50.256Z,99.99
2023-02-11T09:59:50.254Z,99.99
2023-02-11T10:00:50.651Z,99.99
2023-02-11T10:01:50.294Z,99.99
2023-02-11T10:02:50.189Z,99.99
2023-02-11T10:03:57.443Z,99.99
2023-02-11T10:04:57.449Z,99.99
2023-02-11T10:05:57.911Z,99.99
2023-02-11T10:06:50.163Z,99.99
2023-02-11T10:07:50.176Z,99.99
2023-02-11T10:08:50.131Z,99.99
2023-02-11T10:09:50.117Z,99.99
2023-02-11T10:10:50.444Z,99.99
2023-02-11T10:11:50.117Z,99.99
2023-02-11T10:12:50.078Z,99.99
2023-02-11T10:13:50.131Z,99.99
2023-02-11T10:14:50.052Z,99.99
2023-02-11T10:15:50.140Z,99.99
2023-02-11T10:16:50.034Z,99.99
2023-02-11T10:17:50.072Z,99.99
2023-02-11T10:18:50.028Z,99.99
2023-02-11T10:19:50.008Z,99.99
2023-02-11T10:20:51.194Z,99.99
2023-02-11T10:21:49.989Z,99.99
2023-02-11T10:22:49.966Z,99.99
2023-02-11T10:23:49.987Z,99.99
2023-02-11T10:24:49.945Z,99.99
2023-02-11T10:25:49.941Z,99.99
2023-02-11T10:26:49.941Z,99.99
2023-02-11T10:27:49.926Z,99.99
2023-02-11T10:28:49.922Z,99.99
2023-02-11T10:29:49.893Z,99.99
2023-02-11T10:30:50.492Z,99.99
2023-02-11T10:31:49.938Z,99.99
2023-02-11T10:32:49.873Z,99.99
2023-02-11T10:33:49.863Z,99.94
2023-02-11T10:34:49.831Z,99.99
2023-02-11T10:35:49.841Z,99.99
2023-02-11T10:36:49.831Z,99.99
2023-02-11T10:37:49.836Z,99.99
2023-02-11T10:38:49.792Z,99.99
2023-02-11T10:39:49.791Z,99.94
2023-02-11T10:40:50.177Z,99.99
2023-02-11T10:41:49.759Z,99.99
2023-02-11T10:42:49.741Z,99.99
2023-02-11T10:43:49.767Z,99.84
2023-02-11T10:44:49.721Z,99.99
2023-02-11T10:45:49.726Z,99.99
2023-02-11T10:46:49.804Z,99.79
2023-02-11T10:47:49.716Z,99.79
2023-02-11T10:48:49.674Z,99.48
2023-02-11T10:49:49.696Z,99.90
2023-02-11T10:50:50.074Z,99.90
2023-02-11T10:51:49.658Z,99.68
2023-02-11T10:52:49.649Z,99.90
2023-02-11T10:53:49.625Z,99.68
2023-02-11T10:54:49.607Z,99.64
2023-02-11T10:55:49.601Z,99.33
2023-02-11T10:56:49.606Z,99.02
2023-02-11T10:57:49.600Z,99.22
2023-02-11T10:58:49.559Z,99.54
2023-02-11T10:59:49.578Z,99.02
2023-02-11T11:00:50.020Z,98.71
2023-02-11T11:01:49.597Z,98.91
2023-02-11T11:02:49.520Z,98.81
2023-02-11T11:03:49.520Z,98.81
2023-02-11T11:04:49.563Z,98.91
2023-02-11T11:05:49.506Z,99.02
2023-02-11T11:06:49.476Z,98.71
2023-02-11T11:07:49.486Z,98.81
2023-02-11T11:08:49.563Z,98.81
2023-02-11T11:09:49.488Z,98.91
2023-02-11T11:10:49.819Z,99.02
2023-02-11T11:11:49.426Z,98.71
2023-02-11T11:12:49.442Z,99.02
2023-02-11T11:13:49.403Z,98.50
2023-02-11T11:14:49.432Z,98.29
2023-02-11T11:15:49.466Z,98.86
2023-02-11T11:16:49.356Z,98.14
2023-02-11T11:17:49.372Z,97.98
2023-02-11T11:18:49.336Z,97.83
2023-02-11T11:19:49.343Z,97.83
2023-02-11T11:20:49.770Z,98.03
2023-02-11T11:21:49.344Z,97.93
2023-02-11T11:22:49.320Z,98.14
2023-02-11T11:23:49.286Z,97.72
2023-02-11T11:24:49.286Z,97.83
2023-02-11T11:25:49.263Z,97.31
2023-02-11T11:26:49.314Z,97.72
2023-02-11T11:27:49.260Z,97.62
2023-02-11T11:28:49.258Z,97.52
2023-02-11T11:29:49.253Z,97.72
2023-02-11T11:30:49.725Z,97.83
2023-02-11T11:31:49.291Z,97.62
2023-02-11T11:32:49.189Z,97.20
2023-02-11T11:33:49.188Z,97.20
2023-02-11T11:34:49.161Z,97.10
2023-02-11T11:35:49.185Z,96.89
2023-02-11T11:36:49.169Z,97.00
2023-02-11T11:37:49.135Z,97.10
2023-02-11T11:38:49.145Z,97.10
2023-02-11T11:39:49.122Z,97.00
2023-02-11T11:40:49.431Z,97.10
2023-02-11T11:41:49.080Z,97.10
2023-02-11T11:42:49.060Z,97.41
2023-02-11T11:43:49.078Z,97.20
2023-02-11T11:44:49.049Z,97.20
2023-02-11T11:45:49.067Z,97.83
2023-02-11T11:46:49.048Z,97.31
2023-02-11T11:47:49.089Z,97.20
2023-02-11T11:48:49.014Z,97.00
2023-02-11T11:49:49.006Z,97.20
2023-02-11T11:50:49.255Z,97.83
2023-02-11T11:51:48.984Z,97.10
2023-02-11T11:52:49.007Z,97.72
2023-02-11T11:53:48.949Z,97.20
2023-02-11T11:54:48.941Z,97.72
2023-02-11T11:55:48.937Z,97.00
2023-02-11T11:56:48.916Z,97.20
2023-02-11T11:57:48.929Z,97.20
2023-02-11T11:58:48.880Z,97.20
2023-02-11T11:59:48.876Z,97.20
2023-02-11T12:00:49.278Z,97.10
2023-02-11T12:01:48.903Z,97.10
2023-02-11T12:02:48.885Z,97.10
2023-02-11T12:03:48.858Z,97.10
2023-02-11T12:04:48.816Z,97.00
2023-02-11T12:05:48.808Z,96.89
2023-02-11T12:06:48.803Z,96.89
2023-02-11T12:07:48.813Z,97.00
2023-02-11T12:08:48.781Z,96.85
2023-02-11T12:09:48.764Z,97.20
2023-02-11T12:10:49.087Z,97.10
2023-02-11T12:11:48.736Z,97.20
2023-02-11T12:12:48.759Z,97.37
2023-02-11T12:13:48.734Z,97.27
2023-02-11T12:14:48.718Z,97.16
2023-02-11T12:15:48.713Z,97.20
2023-02-11T12:16:48.807Z,96.95
2023-02-11T12:17:48.670Z,97.16
2023-02-11T12:18:48.677Z,97.31
2023-02-11T12:19:48.652Z,96.89
2023-02-11T12:20:49.075Z,96.89
2023-02-11T12:21:48.650Z,97.10
2023-02-11T12:22:48.609Z,97.31
2023-02-11T12:23:48.622Z,96.79
2023-02-11T12:24:48.588Z,97.16
2023-02-11T12:25:48.587Z,97.20
2023-02-11T12:26:48.572Z,96.79
2023-02-11T12:27:48.594Z,96.64
2023-02-11T12:28:48.558Z,96.64
2023-02-11T12:29:48.538Z,96.54
2023-02-11T12:30:48.950Z,96.44
2023-02-11T12:31:48.604Z,96.85
2023-02-11T12:32:48.533Z,96.64
2023-02-11T12:33:48.499Z,96.75
2023-02-11T12:34:48.511Z,96.44
2023-02-11T12:35:48.490Z,96.64
2023-02-11T12:36:48.458Z,96.54
2023-02-11T12:37:48.450Z,96.89
2023-02-11T12:38:48.440Z,96.75
2023-02-11T12:39:48.473Z,96.69
2023-02-11T12:40:48.732Z,96.48
2023-02-11T12:41:48.405Z,97.16
2023-02-11T12:42:48.392Z,97.20
2023-02-11T12:43:48.398Z,96.95
2023-02-11T12:44:48.401Z,96.89
2023-02-11T12:45:48.472Z,96.58
2023-02-11T12:46:48.351Z,96.69
2023-02-11T12:47:48.336Z,97.20
2023-02-11T12:48:48.358Z,96.79
2023-02-11T12:49:48.320Z,96.89
2023-02-11T12:50:48.462Z,97.52
2023-02-11T12:51:48.292Z,96.89
2023-02-11T12:52:48.276Z,97.10